createdAt,value
2023-03-22T00:02:04.367Z,49.70
2023-03-22T00:04:31.967Z,52.20
2023-03-22T00:06:58.385Z,50.40
2023-03-22T00:09:24.859Z,48.70
2023-03-22T00:11:51.442Z,51.70
2023-03-22T00:14:18.038Z,51.90
2023-03-22T00:16:45.738Z,48.20
2023-03-22T00:19:12.317Z,48.20
2023-03-22T00:21:39.062Z,46.30
2023-03-22T00:26:32.637Z,48.40
2023-03-22T00:29:00.103Z,44.10
2023-03-22T00:33:53.001Z,43.60
2023-03-22T00:36:19.474Z,41.90
2023-03-22T00:38:46.087Z,47.20
2023-03-22T00:41:15.354Z,46.50
2023-03-22T00:43:41.726Z,45.50
2023-03-22T00:46:09.417Z,45.50
2023-03-22T00:48:36.224Z,44.30
2023-03-22T00:51:02.969Z,46.50
2023-03-22T00:53:29.262Z,46.00
2023-03-22T00:55:56.455Z,50.40
2023-03-22T00:58:22.898Z,45.00
2023-03-22T01:00:49.310Z,44.20
2023-03-22T01:03:16.207Z,44.10
2023-03-22T01:05:44.645Z,46.40
2023-03-22T01:08:12.410Z,45.10
2023-03-22T01:13:05.484Z,44.40
2023-03-22T01:15:32.054Z,45.50
2023-03-22T01:17:58.382Z,43.20
2023-03-22T01:20:25.355Z,40.30
2023-03-22T01:22:51.784Z,38.80
2023-03-22T01:25:18.178Z,38.20
2023-03-22T01:27:45.418Z,39.90
2023-03-22T01:30:12.393Z,39.50
2023-03-22T01:32:38.883Z,38.50
2023-03-22T01:35:05.729Z,38.50
2023-03-22T01:37:32.157Z,36.30
2023-03-22T01:39:58.930Z,38.20
2023-03-22T01:42:25.764Z,37.90
2023-03-22T01:45:11.289Z,38.30
2023-03-22T01:47:38.820Z,36.90
2023-03-22T01:50:05.724Z,37.70
2023-03-22T01:52:32.075Z,35.10
2023-03-22T01:54:58.335Z,37.40
2023-03-22T01:57:24.880Z,36.50
2023-03-22T01:59:51.819Z,37.20
2023-03-22T02:02:18.566Z,37.70
2023-03-22T02:04:49.654Z,37.00
2023-03-22T02:07:25.376Z,38.60
2023-03-22T02:09:54.058Z,36.10
2023-03-22T02:12:29.587Z,38.20
2023-03-22T02:15:11.324Z,36.00
2023-03-22T02:17:43.536Z,35.00
2023-03-22T02:20:15.727Z,37.30
2023-03-22T02:22:52.407Z,35.80
2023-03-22T02:25:37.476Z,35.10
2023-03-22T02:28:07.232Z,37.20
2023-03-22T02:30:52.617Z,38.60
2023-03-22T02:33:22.121Z,34.20
2023-03-22T02:36:03.565Z,37.30
2023-03-22T02:38:51.914Z,37.40
2023-03-22T02:41:26.933Z,36.30
2023-03-22T02:43:56.081Z,35.80
2023-03-22T02:46:25.507Z,36.30
2023-03-22T02:49:07.824Z,36.20
2023-03-22T02:51:45.188Z,34.50
2023-03-22T02:56:41.897Z,34.40
2023-03-22T02:59:10.958Z,34.80
2023-03-22T03:01:45.540Z,37.20
2023-03-22T03:04:23.985Z,37.50
2023-03-22T03:06:51.291Z,36.20
2023-03-22T03:11:48.320Z,37.10
2023-03-22T03:14:22.030Z,35.80
2023-03-22T03:16:52.665Z,39.00
2023-03-22T03:19:34.871Z,41.30
2023-03-22T03:22:20.262Z,41.20
2023-03-22T03:25:06.227Z,42.20
2023-03-22T03:27:38.986Z,41.00
2023-03-22T03:30:11.505Z,37.30
2023-03-22T03:32:51.927Z,39.80
2023-03-22T03:35:44.764Z,39.50
2023-03-22T03:38:12.725Z,38.80
2023-03-22T03:40:48.010Z,40.70
2023-03-22T03:43:14.990Z,37.20
2023-03-22T03:45:41.554Z,43.20
2023-03-22T03:48:10.387Z,39.00
2023-03-22T03:50:37.689Z,40.40
2023-03-22T03:55:31.975Z,37.90
2023-03-22T03:57:58.265Z,41.00
2023-03-22T04:00:24.952Z,42.40
2023-03-22T04:02:51.889Z,41.90
2023-03-22T04:05:18.385Z,41.70
2023-03-22T04:07:45.400Z,42.30
2023-03-22T04:10:12.003Z,40.60
2023-03-22T04:12:38.738Z,39.60
2023-03-22T04:15:05.788Z,42.50
2023-03-22T04:17:32.323Z,39.20
2023-03-22T04:19:58.691Z,39.90
2023-03-22T04:22:26.033Z,40.40
2023-03-22T04:24:52.382Z,40.60
2023-03-22T04:27:20.073Z,41.70
2023-03-22T04:29:50.474Z,39.60
2023-03-22T04:32:18.394Z,40.30
2023-03-22T04:34:48.538Z,44.10
2023-03-22T04:37:15.758Z,42.00
2023-03-22T04:39:42.589Z,39.20
2023-03-22T04:42:09.087Z,43.20
2023-03-22T04:44:35.668Z,43.00
2023-03-22T04:47:02.823Z,42.20
2023-03-22T04:49:30.793Z,42.30
2023-03-22T04:51:59.346Z,41.30
2023-03-22T04:54:26.024Z,43.20
2023-03-22T04:56:52.539Z,40.50
2023-03-22T04:59:20.385Z,43.70
2023-03-22T05:01:47.704Z,43.80
2023-03-22T05:04:15.262Z,41.30
2023-03-22T05:06:41.595Z,40.30
2023-03-22T05:09:08.596Z,42.50
2023-03-22T05:11:35.666Z,41.40
2023-03-22T05:14:02.439Z,39.30
2023-03-22T05:16:28.775Z,44.30
2023-03-22T05:18:55.273Z,44.20
2023-03-22T05:21:27.699Z,40.20
2023-03-22T05:23:55.550Z,42.10
2023-03-22T05:26:24.058Z,43.30
2023-03-22T05:28:51.217Z,42.70
2023-03-22T05:31:17.735Z,43.70
2023-03-22T05:33:46.068Z,44.20
2023-03-22T05:36:12.551Z,43.30
2023-03-22T05:41:07.276Z,41.40
2023-03-22T05:43:33.801Z,43.10
2023-03-22T05:46:00.446Z,41.60
2023-03-22T05:48:26.898Z,43.10
2023-03-22T05:50:53.274Z,40.50
2023-03-22T05:53:19.834Z,42.10
2023-03-22T05:55:46.174Z,44.00
2023-03-22T05:58:18.372Z,41.90
2023-03-22T06:00:45.961Z,42.60
2023-03-22T06:03:12.326Z,41.50
2023-03-22T06:05:38.674Z,43.60
2023-03-22T06:08:06.364Z,44.40
2023-03-22T06:10:33.993Z,41.10
2023-03-22T06:13:00.361Z,44.40
2023-03-22T06:15:26.829Z,44.20
2023-03-22T06:17:53.218Z,39.70
2023-03-22T06:20:19.907Z,48.40
2023-03-22T06:22:47.765Z,46.20
2023-03-22T06:25:14.247Z,42.30
2023-03-22T06:27:40.839Z,41.40
2023-03-22T06:30:07.647Z,42.80
2023-03-22T06:32:34.100Z,38.30
2023-03-22T06:35:00.421Z,37.60
2023-03-22T06:37:26.761Z,38.00
2023-03-22T06:39:53.051Z,36.90
2023-03-22T06:42:19.629Z,35.90
2023-03-22T06:44:45.924Z,36.50
2023-03-22T06:47:12.738Z,33.90
2023-03-22T06:49:39.995Z,33.70
2023-03-22T06:52:06.648Z,33.40
2023-03-22T06:54:33.511Z,32.60
2023-03-22T06:56:59.914Z,32.90
2023-03-22T06:59:26.406Z,33.40
2023-03-22T07:01:52.793Z,32.20
2023-03-22T07:04:19.428Z,34.40
2023-03-22T07:06:45.865Z,33.80
2023-03-22T07:09:12.180Z,30.60
2023-03-22T07:11:38.464Z,34.40
2023-03-22T07:14:04.849Z,32.20
2023-03-22T07:16:32.623Z,31.40
2023-03-22T07:18:59.400Z,31.30
2023-03-22T07:21:25.797Z,32.40
2023-03-22T07:23:52.395Z,34.00
2023-03-22T07:26:18.938Z,31.60
2023-03-22T07:28:46.094Z,33.30
2023-03-22T07:31:12.776Z,32.00
2023-03-22T07:33:39.649Z,31.80
2023-03-22T07:36:07.335Z,35.60
2023-03-22T07:38:34.154Z,31.90
2023-03-22T07:41:00.597Z,30.20
2023-03-22T07:43:27.084Z,32.30
2023-03-22T07:45:53.412Z,32.90
2023-03-22T07:48:22.399Z,33.50
2023-03-22T07:50:49.035Z,31.60
2023-03-22T07:53:15.405Z,33.20
2023-03-22T07:55:41.712Z,29.20
2023-03-22T07:58:08.720Z,29.10
2023-03-22T08:00:35.108Z,29.40
2023-03-22T08:03:01.832Z,28.50
2023-03-22T08:05:28.779Z,29.50
2023-03-22T08:07:56.273Z,27.60
2023-03-22T08:10:22.844Z,27.10
2023-03-22T08:12:49.361Z,28.20
2023-03-22T08:15:15.900Z,26.20
2023-03-22T08:17:42.484Z,27.80
2023-03-22T08:20:09.598Z,25.90
2023-03-22T08:22:36.032Z,25.30
2023-03-22T08:25:06.510Z,25.80
2023-03-22T08:27:33.455Z,25.70
2023-03-22T08:30:00.179Z,23.70
2023-03-22T08:32:26.616Z,25.80
2023-03-22T08:34:53.385Z,25.80
2023-03-22T08:39:46.736Z,20.50
2023-03-22T08:42:13.062Z,22.10
2023-03-22T08:44:39.446Z,19.60
2023-03-22T08:47:05.883Z,19.80
2023-03-22T08:49:32.451Z,18.60
2023-03-22T08:51:58.864Z,17.50
2023-03-22T08:54:27.379Z,13.80
2023-03-22T08:56:53.996Z,13.90
2023-03-22T08:59:20.370Z,14.60
2023-03-22T09:01:46.850Z,14.30
2023-03-22T09:04:13.557Z,12.70
2023-03-22T09:06:42.295Z,14.80
2023-03-22T09:09:08.682Z,11.20
2023-03-22T09:11:36.622Z,12.00
2023-03-22T09:14:02.955Z,12.50
2023-03-22T09:16:29.461Z,13.30
2023-03-22T09:18:55.957Z,14.30
2023-03-22T09:21:22.345Z,13.70
2023-03-22T09:23:49.755Z,14.00
2023-03-22T09:26:16.279Z,16.00
2023-03-22T09:28:44.829Z,15.10
2023-03-22T09:31:11.566Z,16.20
2023-03-22T09:33:38.522Z,12.50
2023-03-22T09:36:05.007Z,14.90
2023-03-22T09:38:34.717Z,12.70
2023-03-22T09:41:23.512Z,14.60
2023-03-22T09:43:56.385Z,13.40
2023-03-22T09:46:30.624Z,14.60
2023-03-22T09:48:58.413Z,13.40
2023-03-22T09:51:30.647Z,14.40
2023-03-22T09:53:57.031Z,14.50
2023-03-22T09:56:25.528Z,14.00
2023-03-22T09:58:59.687Z,15.70
2023-03-22T10:01:30.889Z,15.00
2023-03-22T10:03:57.437Z,13.50
2023-03-22T10:06:26.094Z,13.40
2023-03-22T10:09:16.340Z,13.00
2023-03-22T10:11:45.108Z,13.20
2023-03-22T10:14:24.361Z,13.00
2023-03-22T10:16:51.794Z,13.30
2023-03-22T10:21:45.940Z,16.90
2023-03-22T10:24:16.062Z,13.00
2023-03-22T10:26:45.136Z,12.90
2023-03-22T10:29:14.917Z,13.40
2023-03-22T10:31:44.529Z,11.80
2023-03-22T10:34:16.050Z,11.70
2023-03-22T10:36:43.712Z,12.30
2023-03-22T10:39:33.515Z,13.40
2023-03-22T10:42:02.214Z,12.40
2023-03-22T10:44:30.024Z,10.80
2023-03-22T10:46:59.695Z,11.70
2023-03-22T10:49:32.749Z,12.60
2023-03-22T10:52:02.391Z,12.20
2023-03-22T10:54:29.613Z,11.70
2023-03-22T10:56:56.017Z,12.40
2023-03-22T10:59:41.805Z,14.00
2023-03-22T11:02:17.499Z,11.90
2023-03-22T11:04:48.435Z,10.80
2023-03-22T11:07:34.855Z,11.80
2023-03-22T11:10:07.304Z,13.10
2023-03-22T11:12:40.075Z,10.80
2023-03-22T11:15:17.455Z,12.80
2023-03-22T11:17:44.401Z,10.40
2023-03-22T11:20:15.622Z,13.30
2023-03-22T11:22:43.721Z,12.70
2023-03-22T11:25:14.874Z,11.20
2023-03-22T11:27:56.775Z,11.70
2023-03-22T11:30:25.203Z,11.60
2023-03-22T11:33:07.208Z,12.40
2023-03-22T11:35:35.490Z,10.00
2023-03-22T11:38:02.203Z,11.60
2023-03-22T11:40:30.832Z,12.00
2023-03-22T11:43:09.363Z,11.10
2023-03-22T11:45:37.233Z,13.30
2023-03-22T11:48:08.364Z,13.20
2023-03-22T11:50:36.613Z,10.40
2023-03-22T11:53:03.778Z,14.00
2023-03-22T11:55:31.210Z,12.10
2023-03-22T11:57:57.679Z,12.60
2023-03-22T12:00:29.008Z,12.20
2023-03-22T12:02:55.672Z,11.40
2023-03-22T12:05:24.286Z,11.80
2023-03-22T12:07:54.788Z,10.20
2023-03-22T12:10:25.970Z,11.30
2023-03-22T12:12:53.938Z,11.10
2023-03-22T12:15:22.273Z,11.00
2023-03-22T12:18:02.219Z,10.90
2023-03-22T12:20:38.143Z,11.90
2023-03-22T12:23:11.375Z,11.00
2023-03-22T12:25:40.172Z,10.90
2023-03-22T12:28:13.697Z,11.10
2023-03-22T12:30:43.185Z,11.00
2023-03-22T12:33:09.931Z,11.80
2023-03-22T12:35:38.583Z,11.10
2023-03-22T12:38:09.194Z,11.20
2023-03-22T12:40:40.356Z,11.50
2023-03-22T12:43:10.307Z,12.70
2023-03-22T12:45:42.353Z,11.40
2023-03-22T12:48:08.955Z,12.70
2023-03-22T12:50:38.321Z,13.10
2023-03-22T12:53:05.959Z,12.90
2023-03-22T12:57:59.121Z,10.90
2023-03-22T13:00:48.950Z,10.90
2023-03-22T13:03:15.659Z,8.30
2023-03-22T13:05:43.561Z,9.00
2023-03-22T13:08:10.408Z,10.30
2023-03-22T13:10:41.105Z,9.00
2023-03-22T13:13:07.677Z,9.30
2023-03-22T13:15:41.661Z,8.20
2023-03-22T13:18:27.356Z,9.60
2023-03-22T13:21:13.333Z,9.70
2023-03-22T13:24:00.297Z,9.10
2023-03-22T13:28:55.473Z,8.10
2023-03-22T13:31:35.416Z,8.70
2023-03-22T13:34:03.872Z,9.80
2023-03-22T13:36:31.467Z,8.30
2023-03-22T13:38:59.308Z,8.40
2023-03-22T13:41:29.819Z,9.40
2023-03-22T13:43:57.592Z,9.00
2023-03-22T13:46:24.072Z,8.30
2023-03-22T13:48:59.593Z,7.80
2023-03-22T13:51:30.676Z,6.80
2023-03-22T13:53:57.305Z,8.10
2023-03-22T13:56:33.156Z,7.70
2023-03-22T13:58:59.960Z,8.10
2023-03-22T14:01:34.428Z,6.80
2023-03-22T14:04:02.794Z,6.70
2023-03-22T14:06:35.591Z,6.40
2023-03-22T14:09:08.823Z,6.50
2023-03-22T14:11:38.826Z,6.70
2023-03-22T14:14:14.190Z,8.80
2023-03-22T14:16:49.382Z,7.70
2023-03-22T14:19:18.699Z,7.10
